createdAt,value
2018-09-14T00:02:13.902Z,71.52
2018-09-14T00:04:43.154Z,71.95
2018-09-14T00:07:12.252Z,72.03
2018-09-14T00:09:41.696Z,71.73
2018-09-14T00:12:10.918Z,71.83
2018-09-14T00:14:40.150Z,71.58
2018-09-14T00:17:09.695Z,71.42
2018-09-14T00:19:39.100Z,71.56
2018-09-14T00:22:08.539Z,71.33
2018-09-14T00:24:38.046Z,71.21
2018-09-14T00:27:07.713Z,71.48
2018-09-14T00:29:37.039Z,71.64
2018-09-14T00:32:07.500Z,72.03
2018-09-14T00:34:36.663Z,71.60
2018-09-14T00:37:06.667Z,71.77
2018-09-14T00:39:36.376Z,72.14
2018-09-14T00:42:05.798Z,71.70
2018-09-14T00:44:35.148Z,71.34
2018-09-14T00:47:05.090Z,72.00
2018-09-14T00:49:34.385Z,71.31
2018-09-14T00:52:03.955Z,71.51
2018-09-14T00:54:33.343Z,71.99
2018-09-14T00:57:03.402Z,71.92
2018-09-14T00:59:32.965Z,71.52
2018-09-14T01:02:02.415Z,71.20
2018-09-14T01:04:31.617Z,71.53
2018-09-14T01:07:00.773Z,71.69
2018-09-14T01:09:30.064Z,71.51
2018-09-14T01:11:59.859Z,71.52
2018-09-14T01:14:29.351Z,71.54
2018-09-14T01:16:58.945Z,71.51
2018-09-14T01:19:28.593Z,71.45
2018-09-14T01:21:57.665Z,71.44
2018-09-14T01:24:27.281Z,71.45
2018-09-14T01:26:56.530Z,71.64
2018-09-14T01:29:25.940Z,71.59
2018-09-14T01:31:55.759Z,72.19
2018-09-14T01:34:26.033Z,71.64
2018-09-14T01:36:55.654Z,71.53
2018-09-14T01:39:25.644Z,72.09
2018-09-14T01:41:55.732Z,71.82
2018-09-14T01:44:25.440Z,71.37
2018-09-14T01:46:55.329Z,71.60
2018-09-14T01:49:25.472Z,71.24
2018-09-14T01:51:54.952Z,71.70
2018-09-14T01:54:25.069Z,71.18
2018-09-14T01:56:54.453Z,71.25
2018-09-14T01:59:24.358Z,70.90
2018-09-14T02:01:54.269Z,71.10
2018-09-14T02:04:24.296Z,70.82
2018-09-14T02:06:54.867Z,71.11
2018-09-14T02:09:25.103Z,70.75
2018-09-14T02:11:54.690Z,71.13
2018-09-14T02:14:24.449Z,71.02
2018-09-14T02:16:55.935Z,71.09
2018-09-14T02:19:25.478Z,71.10
2018-09-14T02:21:55.758Z,70.95
2018-09-14T02:24:25.262Z,71.15
2018-09-14T02:26:54.938Z,70.96
2018-09-14T02:29:24.941Z,71.33
2018-09-14T02:31:54.935Z,71.13
2018-09-14T02:34:24.356Z,71.52
2018-09-14T02:36:54.452Z,72.13
2018-09-14T02:39:24.624Z,71.57
2018-09-14T02:41:54.513Z,72.03
2018-09-14T02:44:24.413Z,71.71
2018-09-14T02:46:54.164Z,71.68
2018-09-14T02:49:24.341Z,72.26
2018-09-14T02:51:54.155Z,72.69
2018-09-14T02:54:23.906Z,72.42
2018-09-14T02:56:54.109Z,72.78
2018-09-14T02:59:23.702Z,72.95
2018-09-14T03:01:52.968Z,72.34
2018-09-14T03:04:23.002Z,72.57
2018-09-14T03:06:52.610Z,73.12
2018-09-14T03:09:23.202Z,72.83
2018-09-14T03:11:52.392Z,73.12
2018-09-14T03:14:22.143Z,72.66
2018-09-14T03:16:51.866Z,72.90
2018-09-14T03:19:21.569Z,72.71
2018-09-14T03:21:51.395Z,73.36
2018-09-14T03:24:21.184Z,73.00
2018-09-14T03:26:50.884Z,73.16
2018-09-14T03:29:20.998Z,73.17
2018-09-14T03:31:50.664Z,73.00
2018-09-14T03:34:21.023Z,73.37
2018-09-14T03:36:50.915Z,74.00
2018-09-14T03:39:20.756Z,73.70
2018-09-14T03:41:50.654Z,73.34
2018-09-14T03:44:21.991Z,73.60
2018-09-14T03:46:51.790Z,73.55
2018-09-14T03:49:21.513Z,73.44
2018-09-14T03:51:51.501Z,73.73
2018-09-14T03:54:22.657Z,73.62
2018-09-14T03:56:52.023Z,73.43
2018-09-14T03:59:22.168Z,73.19
2018-09-14T04:01:52.597Z,73.30
2018-09-14T04:04:22.380Z,73.42
2018-09-14T04:06:52.612Z,72.80
2018-09-14T04:09:23.641Z,73.17
2018-09-14T04:11:53.312Z,73.21
2018-09-14T04:14:25.775Z,73.51
2018-09-14T04:16:55.399Z,73.40
2018-09-14T04:19:25.110Z,73.17
2018-09-14T04:21:55.072Z,73.17
2018-09-14T04:24:24.794Z,73.33
2018-09-14T04:26:54.912Z,72.87
2018-09-14T04:29:24.686Z,73.14
2018-09-14T04:31:54.449Z,72.62
2018-09-14T04:34:25.771Z,73.05
2018-09-14T04:36:55.627Z,73.04
2018-09-14T04:39:25.742Z,73.59
2018-09-14T04:41:55.483Z,73.29
2018-09-14T04:44:25.606Z,73.93
2018-09-14T04:46:55.199Z,73.14
2018-09-14T04:49:24.701Z,73.51
2018-09-14T04:51:55.650Z,73.42
2018-09-14T04:54:25.395Z,73.29
2018-09-14T04:56:55.114Z,73.72
2018-09-14T04:59:24.672Z,73.42
2018-09-14T05:01:54.214Z,73.36
2018-09-14T05:04:23.798Z,73.89
2018-09-14T05:06:53.629Z,74.04
2018-09-14T05:09:23.395Z,73.61
2018-09-14T05:11:52.781Z,73.72
2018-09-14T05:14:22.814Z,73.74
2018-09-14T05:16:54.065Z,73.41
2018-09-14T05:19:23.503Z,73.11
2018-09-14T05:21:53.063Z,72.86
2018-09-14T05:24:22.520Z,73.29
2018-09-14T05:26:52.085Z,73.15
2018-09-14T05:29:21.533Z,72.69
2018-09-14T05:31:51.324Z,73.18
2018-09-14T05:34:21.269Z,72.52
2018-09-14T05:36:50.591Z,72.83
2018-09-14T05:39:19.871Z,72.84
2018-09-14T05:41:49.884Z,72.71
2018-09-14T05:44:19.690Z,72.47
2018-09-14T05:46:48.781Z,72.64
2018-09-14T05:49:18.355Z,72.38
2018-09-14T05:51:48.212Z,72.91
2018-09-14T05:54:18.124Z,72.85
2018-09-14T05:56:47.677Z,72.66
2018-09-14T05:59:17.245Z,72.52
2018-09-14T06:01:47.054Z,72.53
2018-09-14T06:04:16.908Z,72.65
2018-09-14T06:06:46.255Z,73.03
2018-09-14T06:09:18.277Z,73.30
2018-09-14T06:11:47.982Z,73.35
2018-09-14T06:14:17.308Z,73.14
2018-09-14T06:16:46.986Z,73.13
2018-09-14T06:19:16.595Z,73.29
2018-09-14T06:21:45.933Z,73.74
2018-09-14T06:24:15.790Z,73.94
2018-09-14T06:26:45.664Z,73.47
2018-09-14T06:29:15.153Z,74.04
2018-09-14T06:31:44.290Z,73.99
2018-09-14T06:34:13.686Z,73.59
2018-09-14T06:36:43.327Z,73.49
2018-09-14T06:39:13.162Z,73.29
2018-09-14T06:41:43.609Z,73.66
2018-09-14T06:44:13.233Z,72.92
2018-09-14T06:46:42.909Z,72.48
2018-09-14T06:49:12.539Z,71.97
2018-09-14T06:51:42.027Z,72.00
2018-09-14T06:54:11.343Z,71.96
2018-09-14T06:56:40.987Z,72.06
2018-09-14T06:59:11.520Z,72.02
2018-09-14T07:01:40.936Z,71.69
2018-09-14T07:04:11.510Z,71.80
2018-09-14T07:06:41.107Z,71.64
2018-09-14T07:09:10.631Z,71.60
2018-09-14T07:11:40.413Z,71.14
2018-09-14T07:14:09.887Z,70.92
2018-09-14T07:16:39.561Z,70.78
2018-09-14T07:19:09.728Z,71.20
2018-09-14T07:21:39.621Z,70.89
2018-09-14T07:24:09.791Z,71.19
2018-09-14T07:26:39.263Z,70.89
2018-09-14T07:29:09.157Z,70.60
2018-09-14T07:31:38.675Z,70.71
2018-09-14T07:34:08.392Z,70.08
2018-09-14T07:36:38.191Z,70.07
2018-09-14T07:39:10.494Z,69.97
2018-09-14T07:41:39.857Z,69.65
2018-09-14T07:44:09.546Z,69.43
2018-09-14T07:46:39.518Z,69.09
2018-09-14T07:49:09.426Z,68.74
2018-09-14T07:51:39.527Z,68.54
2018-09-14T07:54:09.023Z,68.49
2018-09-14T07:56:38.689Z,67.93
2018-09-14T07:59:09.203Z,68.13
2018-09-14T08:01:39.188Z,67.67
2018-09-14T08:04:10.333Z,67.58
2018-09-14T08:06:40.092Z,67.24
2018-09-14T08:09:12.735Z,67.74
2018-09-14T08:11:43.017Z,67.86
2018-09-14T08:14:12.762Z,68.43
2018-09-14T08:16:42.065Z,68.35
2018-09-14T08:19:11.469Z,68.77
2018-09-14T08:21:41.135Z,68.76
2018-09-14T08:24:10.335Z,68.83
2018-09-14T08:26:40.595Z,68.48
2018-09-14T08:29:10.521Z,68.98
2018-09-14T08:31:40.522Z,68.70
2018-09-14T08:34:10.275Z,68.41
2018-09-14T08:36:40.101Z,68.73
2018-09-14T08:39:11.641Z,68.63
2018-09-14T08:41:41.618Z,67.73
2018-09-14T08:44:11.510Z,67.91
2018-09-14T08:46:41.900Z,67.97
2018-09-14T08:49:11.655Z,67.65
2018-09-14T08:51:41.146Z,68.02
2018-09-14T08:54:11.943Z,67.52
2018-09-14T08:56:41.716Z,67.69
2018-09-14T08:59:11.031Z,67.25
2018-09-14T09:01:40.383Z,67.58
2018-09-14T09:04:09.903Z,67.12
2018-09-14T09:06:39.181Z,67.50
2018-09-14T09:09:11.900Z,67.33
2018-09-14T09:11:41.397Z,67.50
2018-09-14T09:14:11.006Z,67.59
2018-09-14T09:16:40.797Z,67.25
2018-09-14T09:19:11.974Z,67.40
2018-09-14T09:21:42.144Z,67.26
2018-09-14T09:24:11.685Z,67.09
2018-09-14T09:26:41.659Z,67.27
2018-09-14T09:29:10.935Z,67.25
2018-09-14T09:31:40.365Z,67.66
2018-09-14T09:34:09.783Z,68.17
2018-09-14T09:36:39.591Z,67.75
2018-09-14T09:39:11.479Z,68.35
2018-09-14T09:41:42.160Z,68.25
2018-09-14T09:44:11.802Z,68.35
2018-09-14T09:46:41.706Z,68.41
2018-09-14T09:49:11.797Z,69.10
2018-09-14T09:51:41.206Z,69.28
2018-09-14T09:54:10.357Z,69.34
2018-09-14T09:56:39.864Z,69.39
2018-09-14T09:59:09.403Z,69.32
2018-09-14T10:01:44.017Z,69.51
2018-09-14T10:04:18.303Z,69.20
2018-09-14T10:06:48.093Z,68.92
2018-09-14T10:09:17.388Z,68.45
2018-09-14T10:11:47.227Z,68.04
2018-09-14T10:14:17.486Z,68.01
2018-09-14T10:16:47.019Z,68.08
2018-09-14T10:19:17.143Z,68.03
2018-09-14T10:21:47.319Z,67.48
2018-09-14T10:24:17.201Z,67.94
2018-09-14T10:26:47.586Z,67.37
2018-09-14T10:29:17.290Z,67.90
2018-09-14T10:31:47.661Z,68.06
2018-09-14T10:34:17.364Z,68.01
2018-09-14T10:36:46.625Z,67.75
2018-09-14T10:39:16.010Z,68.05
2018-09-14T10:41:45.384Z,68.12
2018-09-14T10:44:14.790Z,67.91
2018-09-14T10:46:44.588Z,67.35
2018-09-14T10:49:14.352Z,67.60
2018-09-14T10:51:43.642Z,67.66
2018-09-14T10:54:13.089Z,66.96
2018-09-14T10:56:43.049Z,67.40
2018-09-14T10:59:12.578Z,67.78
2018-09-14T11:01:42.213Z,67.25
2018-09-14T11:04:11.644Z,67.43
2018-09-14T11:06:41.601Z,66.78
2018-09-14T11:09:13.569Z,67.13
2018-09-14T11:11:43.060Z,66.47
2018-09-14T11:14:13.086Z,66.37
2018-09-14T11:16:42.191Z,66.20
2018-09-14T11:19:11.427Z,65.99
2018-09-14T11:21:41.191Z,65.99
2018-09-14T11:24:11.422Z,66.23
2018-09-14T11:26:41.020Z,66.39
2018-09-14T11:29:10.587Z,66.30
2018-09-14T11:31:40.107Z,66.39
2018-09-14T11:34:09.471Z,67.13
2018-09-14T11:36:39.553Z,66.50
2018-09-14T11:39:10.601Z,66.50
2018-09-14T11:41:40.436Z,66.44
2018-09-14T11:44:10.141Z,65.80
2018-09-14T11:46:39.453Z,65.46
2018-09-14T11:49:09.210Z,65.15
2018-09-14T11:51:39.218Z,65.33
2018-09-14T11:54:09.047Z,65.40
2018-09-14T11:56:38.654Z,64.72
2018-09-14T11:59:08.412Z,64.27
2018-09-14T12:01:37.776Z,64.22
2018-09-14T12:04:07.672Z,64.74
2018-09-14T12:06:36.889Z,64.91
2018-09-14T12:09:08.831Z,65.21
2018-09-14T12:11:38.517Z,64.96
2018-09-14T12:14:08.183Z,65.50
2018-09-14T12:16:38.421Z,65.99
2018-09-14T12:19:07.771Z,66.04
2018-09-14T12:21:37.205Z,65.68
2018-09-14T12:24:07.619Z,65.65
2018-09-14T12:26:37.024Z,65.91
2018-09-14T12:29:06.323Z,65.93
2018-09-14T12:31:36.808Z,65.63
2018-09-14T12:34:23.498Z,65.35
2018-09-14T12:36:53.271Z,64.94
2018-09-14T12:39:24.597Z,65.31
2018-09-14T12:41:54.709Z,64.65
2018-09-14T12:44:24.324Z,64.87
2018-09-14T12:46:54.020Z,64.63
2018-09-14T12:49:23.635Z,64.60
2018-09-14T12:51:53.944Z,64.23
2018-09-14T12:54:23.787Z,64.13
2018-09-14T12:56:54.159Z,64.82
2018-09-14T12:59:23.981Z,64.45
2018-09-14T13:01:53.466Z,64.05
2018-09-14T13:04:23.470Z,64.03
2018-09-14T13:06:52.667Z,63.96
2018-09-14T13:09:22.214Z,64.23
2018-09-14T13:11:51.770Z,64.20
2018-09-14T13:14:22.195Z,64.53
2018-09-14T13:16:52.061Z,65.23
2018-09-14T13:19:23.081Z,65.01
2018-09-14T13:21:52.527Z,65.10
2018-09-14T13:24:23.525Z,65.56
2018-09-14T13:26:53.039Z,66.01
2018-09-14T13:29:26.401Z,66.04
2018-09-14T13:31:55.841Z,66.08
2018-09-14T13:34:25.587Z,66.03
2018-09-14T13:36:55.366Z,66.14
2018-09-14T13:39:25.692Z,66.24
2018-09-14T13:41:55.144Z,65.82
2018-09-14T13:44:25.507Z,66.06
2018-09-14T13:46:55.495Z,66.41
2018-09-14T13:49:24.630Z,65.41
2018-09-14T13:51:54.121Z,65.66
2018-09-14T13:54:24.413Z,65.79
2018-09-14T13:56:54.975Z,65.75
2018-09-14T13:59:24.897Z,66.42
2018-09-14T14:01:54.237Z,66.01
2018-09-14T14:04:24.187Z,66.74
2018-09-14T14:06:54.220Z,66.80
2018-09-14T14:09:23.510Z,67.36
2018-09-14T14:11:53.291Z,67.31
2018-09-14T14:14:22.655Z,66.71
2018-09-14T14:16:52.052Z,66.35
2018-09-14T14:19:22.452Z,66.23
2018-09-14T14:21:51.882Z,66.80
2018-09-14T14:24:21.265Z,66.52
2018-09-14T14:26:50.579Z,67.02
2018-09-14T14:29:19.943Z,66.56
2018-09-14T14:31:49.625Z,66.89
2018-09-14T14:34:19.051Z,67.56
2018-09-14T14:36:48.346Z,67.88
2018-09-14T14:39:18.112Z,67.53
2018-09-14T14:41:48.634Z,68.04
2018-09-14T14:44:18.105Z,68.58
2018-09-14T14:46:47.643Z,68.68
2018-09-14T14:49:18.293Z,68.92
2018-09-14T14:51:47.829Z,69.21
2018-09-14T14:54:17.477Z,68.97
2018-09-14T14:56:46.977Z,69.08
2018-09-14T14:59:17.290Z,68.92
2018-09-14T15:01:46.996Z,69.31
2018-09-14T15:04:16.498Z,68.88
2018-09-14T15:06:46.371Z,69.04
2018-09-14T15:09:16.361Z,68.71
2018-09-14T15:11:45.955Z,68.88
2018-09-14T15:14:15.246Z,68.86
2018-09-14T15:16:44.541Z,68.82
2018-09-14T15:19:14.336Z,68.29
2018-09-14T15:21:43.519Z,68.48
2018-09-14T15:24:13.173Z,69.01
2018-09-14T15:26:43.055Z,69.42
2018-09-14T15:29:12.383Z,69.85
2018-09-14T15:31:42.219Z,70.08
2018-09-14T15:34:12.183Z,70.59
2018-09-14T15:36:42.028Z,71.73
2018-09-14T15:39:12.561Z,72.25
2018-09-14T15:41:42.716Z,72.45
2018-09-14T15:44:12.563Z,72.22
2018-09-14T15:46:43.158Z,72.89
2018-09-14T15:49:13.023Z,73.00
2018-09-14T15:51:42.665Z,73.71
2018-09-14T15:54:12.013Z,73.58
2018-09-14T15:56:41.650Z,73.64
2018-09-14T15:59:11.783Z,73.52
2018-09-14T16:01:41.735Z,74.50
2018-09-14T16:04:11.111Z,75.16
2018-09-14T16:06:40.823Z,74.44
2018-09-14T16:09:12.228Z,74.60
2018-09-14T16:11:41.718Z,75.12
2018-09-14T16:14:11.200Z,75.26
2018-09-14T16:16:41.093Z,76.36
2018-09-14T16:19:10.970Z,76.20
2018-09-14T16:21:40.271Z,76.18
2018-09-14T16:24:09.665Z,76.07
2018-09-14T16:26:39.739Z,75.68
2018-09-14T16:29:09.412Z,76.66
2018-09-14T16:31:38.854Z,76.61
2018-09-14T16:34:08.726Z,76.91
2018-09-14T16:36:38.216Z,77.71
2018-09-14T16:39:09.883Z,77.42
2018-09-14T16:41:39.383Z,77.75
2018-09-14T16:44:08.931Z,77.83
2018-09-14T16:46:39.190Z,78.11
2018-09-14T16:49:09.500Z,77.65
2018-09-14T16:51:38.997Z,78.21
2018-09-14T16:54:08.736Z,77.77
2018-09-14T16:56:38.636Z,78.46
2018-09-14T16:59:08.843Z,77.82
2018-09-14T17:01:38.458Z,78.55
2018-09-14T17:04:08.324Z,78.09
2018-09-14T17:06:37.598Z,78.39
2018-09-14T17:09:08.922Z,78.36
2018-09-14T17:11:38.921Z,77.80
2018-09-14T17:14:09.599Z,78.05
2018-09-14T17:19:25.802Z,77.82
2018-09-14T17:21:56.103Z,77.82
2018-09-14T17:24:26.280Z,78.17
2018-09-14T17:26:56.203Z,78.20
2018-09-14T17:29:25.777Z,78.48
2018-09-14T17:31:55.549Z,78.46
2018-09-14T17:34:25.802Z,78.96
2018-09-14T17:36:55.932Z,78.85
2018-09-14T17:39:25.481Z,78.59
2018-09-14T17:41:56.044Z,79.09
2018-09-14T17:44:26.464Z,78.80
2018-09-14T17:46:56.514Z,79.51
2018-09-14T17:49:26.550Z,79.05
2018-09-14T17:51:56.336Z,78.97
2018-09-14T17:54:26.820Z,79.07
2018-09-14T17:56:56.443Z,79.28
2018-09-14T17:59:27.554Z,79.42
2018-09-14T18:01:57.215Z,79.05
2018-09-14T18:04:27.883Z,79.00
2018-09-14T18:06:59.354Z,79.31
2018-09-14T18:09:29.258Z,79.15
2018-09-14T18:11:59.234Z,78.79
2018-09-14T18:14:29.605Z,78.37
2018-09-14T18:16:59.446Z,78.54
2018-09-14T18:19:29.603Z,78.71
2018-09-14T18:21:59.041Z,78.98
2018-09-14T18:24:28.875Z,78.71
2018-09-14T18:26:58.874Z,78.60
2018-09-14T18:29:28.873Z,79.23
2018-09-14T18:31:59.904Z,79.35
2018-09-14T18:34:45.012Z,79.51
2018-09-14T18:37:14.612Z,80.00
2018-09-14T18:39:44.508Z,80.12
2018-09-14T18:42:13.870Z,80.14
2018-09-14T18:44:43.432Z,80.15
2018-09-14T18:47:13.393Z,80.36
2018-09-14T18:49:43.340Z,79.72
2018-09-14T18:52:14.032Z,79.93
2018-09-14T18:54:43.461Z,80.22
2018-09-14T18:57:13.879Z,80.02
2018-09-14T18:59:47.541Z,79.80
2018-09-14T19:02:17.483Z,80.02
2018-09-14T19:04:47.863Z,79.83
2018-09-14T19:07:17.317Z,80.38
2018-09-14T19:09:46.742Z,79.98
2018-09-14T19:12:16.891Z,80.14
2018-09-14T19:14:46.580Z,79.66
2018-09-14T19:17:16.458Z,80.34
2018-09-14T19:19:46.356Z,79.62
2018-09-14T19:22:15.651Z,79.67
2018-09-14T19:24:45.445Z,79.07
2018-09-14T19:27:14.949Z,79.31
2018-09-14T19:29:45.153Z,79.32
2018-09-14T19:32:14.504Z,79.25
2018-09-14T19:34:44.508Z,79.61
2018-09-14T19:37:13.803Z,78.87
2018-09-14T19:39:43.152Z,79.32
2018-09-14T19:42:12.793Z,79.19
2018-09-14T19:44:42.859Z,79.17
2018-09-14T19:47:12.599Z,79.04
2018-09-14T19:49:42.142Z,79.38
2018-09-14T19:52:11.805Z,79.13
2018-09-14T19:54:43.456Z,79.27
2018-09-14T19:57:13.096Z,78.80
2018-09-14T19:59:42.534Z,77.86
2018-09-14T20:02:13.140Z,78.03
2018-09-14T20:04:43.216Z,78.35
2018-09-14T20:07:13.043Z,78.04
2018-09-14T20:09:43.749Z,77.89
2018-09-14T20:12:13.094Z,77.72
2018-09-14T20:14:43.314Z,77.43
2018-09-14T20:17:14.473Z,77.76
2018-09-14T20:19:44.268Z,77.62
2018-09-14T20:22:15.183Z,76.89
2018-09-14T20:24:44.635Z,76.93
2018-09-14T20:27:14.251Z,76.66
2018-09-14T20:29:43.867Z,76.86
2018-09-14T20:32:14.290Z,76.64
2018-09-14T20:34:44.146Z,76.50
2018-09-14T20:37:15.019Z,76.74
2018-09-14T20:39:45.098Z,76.76
2018-09-14T20:42:15.396Z,76.47
2018-09-14T20:44:44.715Z,76.70
2018-09-14T20:47:14.070Z,76.94
2018-09-14T20:49:44.447Z,77.00
2018-09-14T20:52:14.161Z,76.59
2018-09-14T20:54:44.534Z,77.00
2018-09-14T20:57:15.323Z,77.31
2018-09-14T20:59:44.515Z,77.52
2018-09-14T21:02:14.169Z,77.59
2018-09-14T21:04:43.453Z,78.01
2018-09-14T21:07:12.644Z,78.36
2018-09-14T21:09:42.426Z,78.36
2018-09-14T21:12:11.774Z,78.72
2018-09-14T21:14:41.606Z,78.76
2018-09-14T21:17:11.092Z,79.03
2018-09-14T21:19:41.098Z,79.02
2018-09-14T21:22:11.021Z,79.20
2018-09-14T21:24:40.469Z,79.53
2018-09-14T21:27:09.731Z,79.13
2018-09-14T21:29:39.429Z,79.25
2018-09-14T21:32:10.159Z,78.56
2018-09-14T21:34:40.258Z,78.93
2018-09-14T21:37:10.261Z,78.81
2018-09-14T21:39:40.190Z,79.36
2018-09-14T21:42:09.893Z,78.96
2018-09-14T21:44:38.966Z,79.49
2018-09-14T21:47:08.411Z,80.06
2018-09-14T21:49:38.181Z,79.93
2018-09-14T21:52:07.783Z,80.45
2018-09-14T21:54:37.158Z,79.95
2018-09-14T21:57:07.086Z,80.33
2018-09-14T21:59:36.893Z,80.61
2018-09-14T22:02:06.224Z,80.50
2018-09-14T22:04:35.698Z,80.53
2018-09-14T22:07:05.301Z,80.17
2018-09-14T22:09:34.698Z,80.39
2018-09-14T22:12:04.860Z,80.04
2018-09-14T22:14:34.389Z,80.39
2018-09-14T22:17:04.563Z,80.07
2018-09-14T22:19:34.204Z,79.66
2018-09-14T22:22:03.917Z,79.74
2018-09-14T22:24:33.270Z,80.22
2018-09-14T22:27:02.252Z,80.32
2018-09-14T22:29:32.273Z,80.00
2018-09-14T22:32:01.491Z,80.11
2018-09-14T22:34:31.834Z,80.54
2018-09-14T22:37:02.117Z,80.84
2018-09-14T22:39:32.178Z,80.88
2018-09-14T22:42:01.838Z,80.53
2018-09-14T22:44:31.701Z,81.02
2018-09-14T22:47:01.306Z,80.23
2018-09-14T22:49:31.160Z,80.75
2018-09-14T22:52:01.543Z,81.21
2018-09-14T22:54:30.932Z,81.24
2018-09-14T22:57:01.060Z,81.21
2018-09-14T22:59:30.614Z,80.54
2018-09-14T23:02:00.722Z,80.56
2018-09-14T23:04:30.332Z,80.30
2018-09-14T23:06:59.800Z,81.04
2018-09-14T23:09:29.894Z,80.36
2018-09-14T23:11:59.576Z,80.47
2018-09-14T23:14:28.890Z,80.21
2018-09-14T23:16:59.207Z,80.65
2018-09-14T23:19:28.580Z,80.63
2018-09-14T23:21:58.101Z,80.62
2018-09-14T23:24:27.781Z,80.83
2018-09-14T23:26:57.176Z,80.68
2018-09-14T23:29:26.569Z,80.63
2018-09-14T23:31:56.445Z,80.56
2018-09-14T23:34:25.753Z,80.40
2018-09-14T23:36:55.409Z,80.89
2018-09-14T23:39:25.355Z,80.97
2018-09-14T23:41:54.773Z,80.23
2018-09-14T23:44:24.890Z,80.28
2018-09-14T23:46:54.196Z,80.46
2018-09-14T23:49:23.797Z,79.78
2018-09-14T23:51:53.453Z,80.23
2018-09-14T23:54:23.897Z,79.75
2018-09-14T23:56:53.524Z,80.00
2018-09-14T23:59:23.140Z,79.62
